Latest Coastal Weather Observations for Cape Grim

IDV60701

Issued at 10:21 am EDT Saturday 20 December 2014 (issued every 10 minutes, with the page automatically refreshed every 10 minutes)

About coastal observations | Map of coastal stations | Coastal observations for VIC | Marine services | Other Formats
Station Details ID: 091331 Name: CAPE GRIM Lat: -40.68 Lon: 144.69 Height: 86.0 m
Data from the previous 72 hours. | See also: Recent months at Cape Grim
Date/Time
EDT
Temp

°C
Wind Pressure Rain
since 9am
mm
Weather Cloud Vis
km
Sea
Height
m
Swell
Dir
 
Speed
knots
Gust
knots
hPa Trend Height
m
Period
s
Dir
20/10:00am 14.1 WSW 17 27 1016.1 - 0.4 - Partly cloudy - - - - -
20/09:41am 14.5 W 15 25 1016.0 - 0.0 - Partly cloudy - - - - -
20/09:30am 14.4 W 15 21 1016.1 - 0.0 - Partly cloudy - - - - -
20/09:00am 14.0 W 16 25 1015.7 - 0.2 Recent precip. Cloudy - - - - -
20/08:30am 13.8 W 18 27 1015.5 - 0.2 - Partly cloudy - - - - -
20/08:27am 13.8 W 17 27 1015.5 - 0.2 - Partly cloudy - - - - -
20/08:00am 13.8 W 17 24 1015.2 - 0.0 - Partly cloudy - - - - -
20/07:30am 14.0 W 17 27 1015.0 - 0.0 - Partly cloudy - - - - -
20/07:27am 14.1 W 17 24 1015.0 - 0.0 - Partly cloudy - - - - -
20/07:04am 13.9 W 17 24 1014.8 - 0.0 - Partly cloudy - - - - -
20/07:00am 14.0 W 18 26 1014.8 - 0.0 - Partly cloudy - - - - -
20/06:46am 14.3 W 17 25 1014.7 - 0.0 - Cloudy - - - - -
20/06:36am 14.2 W 18 25 1014.6 - 0.0 - Partly cloudy - - - - -
20/06:30am 14.4 W 18 25 1014.6 - 0.0 - Partly cloudy - - - - -
20/06:18am 14.3 W 18 24 1014.5 - 0.0 - Partly cloudy - - - - -
20/06:17am 14.4 W 18 25 1014.5 - 0.0 - Partly cloudy - - - - -
20/06:00am 14.1 W 18 24 1014.4 - 0.0 - Cloudy - - - - -
20/05:49am 13.9 W 16 22 1014.4 - 0.0 - Partly cloudy - - - - -
20/05:37am 13.6 W 17 22 1014.4 - 0.0 - Partly cloudy - - - - -
20/05:30am 13.6 W 15 20 1014.3 - 0.0 - Partly cloudy - - - - -
20/05:00am 13.6 W 16 24 1014.4 - 0.0 - Partly cloudy - - - - -
20/04:43am 13.8 W 19 27 1014.3 - 0.0 - Partly cloudy - - - - -
20/04:30am 14.3 W 19 27 1014.2 - 0.0 - Partly cloudy - - - - -
20/04:00am 14.4 W 20 26 1014.2 - 0.0 - Partly cloudy - - - - -
20/03:30am 14.4 W 17 25 1014.3 - 0.0 - Partly cloudy - - - - -
20/03:05am 14.2 W 16 26 1014.6 - 0.0 - Partly cloudy - - - - -
20/03:00am 13.9 W 13 23 1014.7 - 0.0 - Cloudy - - - - -
20/02:30am 14.3 W 17 24 1015.1 - 0.0 - Partly cloudy - - - - -
20/02:00am 14.3 WNW 18 23 1015.3 - 0.0 - Partly cloudy - - - - -
20/01:30am 14.4 WNW 20 28 1015.7 - 0.0 - Partly cloudy - - - - -
20/01:00am 14.2 WNW 18 24 1015.9 - 0.0 - Partly cloudy - - - - -
20/12:30am 14.2 W 18 24 1016.2 - 0.0 - Partly cloudy - - - - -
 
Date/Time
EDT
Temp

°C
Wind Pressure Rain
since 9am
mm
Weather Cloud Vis
km
Sea
Height
m
Swell
Dir
 
Speed
knots
Gust
knots
hPa Trend Height
m
Period
s
Dir
19/11:30pm 14.2 W 15 21 1016.8 - 0.0 - Partly cloudy - - - - -
19/11:00pm 14.1 W 13 19 1017.0 - 0.0 - Partly cloudy - - - - -
19/10:30pm 14.0 W 14 20 1017.3 - 0.0 - Partly cloudy - - - - -
19/10:00pm 13.8 W 15 21 1017.3 - 0.0 - Partly cloudy - - - - -
19/09:30pm 13.6 W 13 21 1017.3 - 0.0 - Partly cloudy - - - - -
19/09:00pm 13.8 W 13 21 1017.2 - 0.0 - Cloudy - - - - -
19/08:30pm 13.8 W 12 20 1017.2 - 0.0 - Partly cloudy - - - - -
19/08:00pm 13.7 W 11 15 1017.1 - 0.0 - Partly cloudy - - - - -
19/07:30pm 13.5 WSW 11 20 1016.8 - 0.0 - Partly cloudy - - - - -
19/07:00pm 13.0 SW 15 20 1016.7 - 0.0 - Partly cloudy - - - - -
19/06:30pm 12.8 W 12 18 1016.4 - 0.0 - Partly cloudy - - - - -
19/06:08pm 13.2 W 15 27 1016.4 - 0.0 - Partly cloudy - - - - -
19/06:00pm 13.8 W 13 19 1016.3 - 0.0 - Cloudy - - - - -
19/05:30pm 13.8 W 13 19 1016.4 - 0.0 - Partly cloudy - - - - -
19/05:00pm 14.1 WSW 12 19 1016.3 - 0.0 - Partly cloudy - - - - -
19/04:30pm 15.0 WSW 12 21 1016.4 - 0.0 - Partly cloudy - - - - -
19/04:00pm 14.5 W 11 18 1016.5 - 0.0 - Partly cloudy - - - - -
19/03:30pm 14.7 WSW 12 20 1016.3 - 0.0 - - - - - - -
19/03:00pm 14.8 WSW 12 22 1016.4 - 0.0 - Mostly clear - - - - -
19/02:30pm 14.6 WSW 11 19 1016.2 - 0.0 - Partly cloudy - - - - -
19/02:00pm 14.5 WSW 11 18 1016.2 - 0.0 - Partly cloudy - - - - -
19/01:30pm 14.5 W 11 17 1016.2 - 0.0 - Partly cloudy - - - - -
19/01:00pm 14.6 WSW 10 17 1016.1 - 0.0 - - - - - - -
19/12:30pm 14.5 WSW 12 19 1015.9 - 0.0 - - - - - - -
19/12:00pm 13.9 SW 15 21 1015.8 - 0.0 - Mostly clear - - - - -
19/11:30am 14.1 SW 13 20 1015.8 - 0.0 - Partly cloudy - - - - -
19/11:00am 13.8 SW 13 20 1015.7 - 0.0 - Partly cloudy - - - - -
19/10:30am 14.5 SW 17 21 1015.6 - 0.0 - - - - - - -
19/10:00am 14.1 SW 17 22 1015.3 - 0.0 - - - - - - -
19/09:30am 13.7 SW 16 21 1015.2 - 0.0 - - - - - - -
19/09:00am 13.5 SW 19 23 1015.1 - 4.4 - Mostly clear - - - - -
19/08:30am 13.2 SW 18 22 1014.7 - 4.4 - - - - - - -
19/08:00am 12.8 SW 20 26 1014.3 - 4.4 - Partly cloudy - - - - -
19/07:30am 12.6 SW 19 24 1013.8 - 4.4 - - - - - - -
19/07:00am 12.3 SW 21 26 1013.4 - 4.4 - Partly cloudy - - - - -
19/06:30am 12.2 SW 21 26 1013.0 - 4.4 - Partly cloudy - - - - -
19/06:00am 12.0 SW 20 26 1012.7 - 4.4 - Mostly clear - - - - -
19/05:30am 11.8 SW 20 27 1012.3 - 4.4 - Partly cloudy - - - - -
19/05:00am 11.7 SW 19 26 1011.9 - 4.4 - Partly cloudy - - - - -
19/04:36am 12.1 SW 21 34 1011.3 - 4.2 - Partly cloudy - - - - -
19/04:30am 12.2 SW 20 25 1011.4 - 4.2 - Partly cloudy - - - - -
19/04:00am 12.0 SW 21 27 1011.3 - 4.2 - Partly cloudy - - - - -
19/03:30am 12.3 SW 23 28 1011.0 - 4.2 - Partly cloudy - - - - -
19/03:00am 12.3 SW 22 27 1010.8 - 4.2 - Partly cloudy - - - - -
19/02:30am 12.4 WSW 19 27 1010.6 - 4.2 - Partly cloudy - - - - -
19/02:00am 12.7 WSW 15 27 1010.5 - 4.2 - Partly cloudy - - - - -
19/01:31am 12.8 SW 19 29 1010.5 - 4.2 - Partly cloudy - - - - -
19/01:30am 12.8 SW 20 29 1010.5 - 4.2 - Partly cloudy - - - - -
19/01:04am 12.6 SW 17 27 1010.4 - 4.2 - Partly cloudy - - - - -
19/01:00am 12.6 SW 17 24 1010.4 - 4.2 - Partly cloudy - - - - -
19/12:30am 12.7 SW 17 27 1010.2 - 4.2 - - - - - - -
19/12:00am 13.0 WSW 15 25 1010.0 - 4.2 - - - - - - -
 
Date/Time
EDT
Temp

°C
Wind Pressure Rain
since 9am
mm
Weather Cloud Vis
km
Sea
Height
m
Swell
Dir
 
Speed
knots
Gust
knots
hPa Trend Height
m
Period
s
Dir
18/11:30pm 13.0 WSW 17 34 1009.9 - 4.2 - Partly cloudy - - - - -
18/11:00pm 13.3 WSW 15 29 1009.8 - 4.2 - Partly cloudy - - - - -
18/10:31pm 13.5 WSW 15 25 1009.7 - 4.2 - Partly cloudy - - - - -
18/10:30pm 13.5 WSW 14 25 1009.7 - 4.2 - Partly cloudy - - - - -
18/10:29pm 13.5 WSW 15 25 1009.7 - 4.2 - Partly cloudy - - - - -
18/10:00pm 13.3 WSW 14 26 1009.6 - 4.2 - Partly cloudy - - - - -
18/09:30pm 13.1 SW 17 27 1009.4 - 4.2 - - - - - - -
18/09:14pm 13.0 SW 16 27 1009.2 - 4.2 - - - - - - -
18/09:00pm 12.8 SW 18 25 1009.1 - 4.2 Recent precip. - - - - - -
18/08:30pm 12.4 SW 21 25 1008.7 - 4.2 - Partly cloudy - - - - -
18/08:00pm 13.1 SW 21 30 1008.1 - 4.0 - Partly cloudy - - - - -
18/07:30pm 14.1 SW 15 27 1007.6 - 4.0 - Partly cloudy - - - - -
18/07:16pm 14.0 SW 15 25 1007.4 - 4.0 - Partly cloudy - - - - -
18/07:00pm 13.8 SW 19 28 1007.1 - 4.0 - Partly cloudy - - - - -
18/06:52pm 13.8 WSW 15 25 1006.8 - 4.0 - Partly cloudy - - - - -
18/06:30pm 14.5 WSW 14 26 1006.4 - 4.0 - Partly cloudy - - - - -
18/06:00pm 14.9 WSW 12 21 1005.9 - 4.0 - Cloudy - - - - -
18/05:30pm 14.2 WSW 15 30 1005.4 - 4.0 - Partly cloudy - - - - -
18/05:25pm 14.8 WSW 15 29 1005.3 - 4.0 - Partly cloudy - - - - -
18/05:00pm 14.7 W 14 18 1005.4 - 4.0 - Partly cloudy - - - - -
18/04:30pm 13.8 W 13 17 1005.0 - 4.0 - Partly cloudy - - - - -
18/04:00pm 12.5 W 15 22 1004.8 - 4.0 - Partly cloudy - - - - -
18/03:30pm 14.3 W 16 22 1004.5 - 3.8 - Partly cloudy - - - - -
18/03:00pm 14.9 WNW 14 19 1004.2 - 3.8 Recent precip. Mostly cloudy - - - - -
18/02:30pm 12.8 NW 12 16 1003.9 - 3.8 - Partly cloudy - - - - -
18/02:00pm 12.0 WNW 17 23 1004.2 - 3.2 - Partly cloudy - - - - -
18/01:30pm 12.4 WNW 23 28 1004.1 - 1.8 - Partly cloudy - - - - -
18/01:11pm 13.0 NW 22 32 1004.2 - 1.0 - Partly cloudy - - - - -
18/01:00pm 13.0 NW 23 28 1004.2 - 0.8 - Partly cloudy - - - - -
18/12:30pm 14.0 NW 20 30 1003.9 - 0.0 - Partly cloudy - - - - -
18/12:00pm 15.7 NNW 20 25 1003.7 - 0.0 - Cloudy - - - - -
18/11:30am 16.3 NNW 22 27 1003.4 - 0.0 - Partly cloudy - - - - -
18/11:00am 16.0 NNW 19 25 1003.3 - 0.0 - Partly cloudy - - - - -
18/10:30am 16.2 NNW 20 26 1003.8 - 0.0 - Partly cloudy - - - - -
18/10:00am 16.4 NNW 20 27 1003.9 - 0.0 - - - - - - -
18/09:30am 16.2 N 21 28 1003.9 - 0.0 - Partly cloudy - - - - -
18/09:00am 15.8 N 20 26 1004.1 - 0.0 - Cloudy - - - - -
18/08:30am 15.8 N 19 23 1004.0 - 0.0 - Partly cloudy - - - - -
18/08:00am 15.6 N 19 24 1003.8 - 0.0 - Partly cloudy - - - - -
18/07:30am 15.2 N 20 24 1004.0 - 0.0 - - - - - - -
18/07:00am 14.5 N 15 20 1003.9 - 0.0 - Partly cloudy - - - - -
18/06:30am 14.0 N 18 22 1003.7 - 0.0 - Partly cloudy - - - - -
18/06:00am 13.9 N 17 23 1003.8 - 0.0 - Cloudy - - - - -
18/05:30am 13.9 N 18 22 1003.9 - 0.0 - Cloudy - - - - -
18/05:00am 13.9 N 16 21 1004.0 - 0.0 - Partly cloudy - - - - -
18/04:30am 13.9 N 17 21 1004.1 - 0.0 - Cloudy - - - - -
18/04:00am 13.8 NNW 16 21 1004.4 - 0.0 - Partly cloudy - - - - -
18/03:30am 13.9 NNW 16 21 1004.8 - 0.0 - Cloudy - - - - -
18/03:00am 13.8 NNW 16 21 1005.1 - 0.0 - Mostly cloudy - - - - -
18/02:30am 13.6 NNW 14 17 1005.2 - 0.0 - Partly cloudy - - - - -
18/02:00am 13.5 NNW 15 19 1005.6 - 0.0 - Partly cloudy - - - - -
18/01:30am 13.4 NNW 13 17 1005.7 - 0.0 - Partly cloudy - - - - -
18/01:00am 13.2 NNW 13 16 1005.8 - 0.0 - Partly cloudy - - - - -
18/12:30am 13.1 NNW 10 13 1006.0 - 0.0 - - - - - - -
18/12:00am 12.9 NNW 10 13 1006.1 - 0.0 - - - - - - -
 
Date/Time
EDT
Temp

°C
Wind Pressure Rain
since 9am
mm
Weather Cloud Vis
km
Sea
Height
m
Swell
Dir
 
Speed
knots
Gust
knots
hPa Trend Height
m
Period
s
Dir
17/11:30pm 13.1 NNW 11 16 1006.5 - 0.0 - - - - - - -
17/11:00pm 13.3 NW 11 14 1006.9 - 0.0 - - - - - - -
17/10:30pm 13.1 NW 12 15 1007.2 - 0.0 - - - - - - -
17/10:00pm 13.1 NW 11 16 1007.4 - 0.0 - Partly cloudy - - - - -
17/09:30pm 13.1 NW 11 14 1007.5 - 0.0 - - - - - - -
17/09:00pm 13.1 NW 9 13 1007.4 - 0.0 - Mostly clear - - - - -
17/08:30pm 13.3 NW 10 13 1007.5 - 0.0 - Partly cloudy - - - - -
17/08:00pm 14.1 WNW 10 13 1007.5 - 0.0 - Partly cloudy - - - - -
17/07:30pm 14.7 WNW 12 14 1007.3 - 0.0 - Partly cloudy - - - - -
17/07:00pm 14.9 WNW 11 15 1007.2 - 0.0 - Partly cloudy - - - - -
17/06:30pm 15.7 WNW 13 17 1007.1 - 0.0 - - - - - - -
17/06:00pm 15.7 W 12 17 1007.1 - 0.0 - Mostly clear - - - - -
17/05:30pm 15.5 W 13 17 1007.2 - 0.0 - Partly cloudy - - - - -
17/05:00pm 15.3 W 13 17 1007.3 - 0.0 - Partly cloudy - - - - -
17/04:30pm 16.0 W 13 18 1007.4 - 0.0 - Partly cloudy - - - - -
17/04:00pm 15.5 W 9 14 1007.4 - 0.0 - - - - - - -
17/03:30pm 15.5 W 9 13 1007.5 - 0.0 - Partly cloudy - - - - -
17/03:00pm 15.1 W 9 13 1007.5 - 0.0 - Mostly clear - - - - -
17/02:30pm 15.2 WSW 10 17 1007.6 - 0.0 - Partly cloudy - - - - -
17/02:00pm 14.8 W 13 19 1007.5 - 0.0 - Partly cloudy - - - - -
17/01:30pm 15.3 W 11 17 1007.6 - 0.0 - - - - - - -
17/01:00pm 14.5 W 11 19 1007.6 - 0.0 - Partly cloudy - - - - -
17/12:30pm 14.8 W 11 17 1007.4 - 0.0 - Partly cloudy - - - - -
17/12:00pm 14.4 W 13 21 1007.3 - 0.0 - Mostly cloudy - - - - -
17/11:30am 14.2 W 11 18 1007.0 - 0.0 - Partly cloudy - - - - -
17/11:00am 14.3 W 13 20 1006.8 - 0.0 - Partly cloudy - - - - -
17/10:30am 14.3 W 14 21 1006.6 - 0.0 - Partly cloudy - - - - -

Other Formats:

Comma delimited format used in spreadsheet applications
http://www.bom.gov.au/fwo/IDV60701/IDV60701.95954.axf

JavaScript Object Notation format (JSON) in row-major order
http://www.bom.gov.au/fwo/IDV60701/IDV60701.95954.json